Time;durP1;ratioP1;P1;durP2;ratioP2;P2;SDS_P1;SDS_P2;PMS_P1;PMS_P2;Temp;Humidity;BMP_temperature;BMP_pressure;BME280_temperature;BME280_humidity;BME280_pressure;Samples;Min_cycle;Max_cycle;Signal;HPM_P1;HPM_P2
2021/10/22 00:00:16;;;;;;;13.25;7.13;;;;;;;13.37;100.00;97800.84;5021753;28;20110;-66
2021/10/22 00:03:03;;;;;;;8.55;6.13;;;;;;;13.35;100.00;97813.41;5007726;28;20073;-68
2021/10/22 00:05:49;;;;;;;11.60;6.78;;;;;;;13.31;100.00;97790.59;5018318;28;20044;-63
2021/10/22 00:08:33;;;;;;;10.00;6.68;;;;;;;13.33;100.00;97786.03;5016683;28;20065;-65
2021/10/22 00:11:20;;;;;;;9.73;6.18;;;;;;;13.38;100.00;97781.28;5018671;28;20107;-66
2021/10/22 00:14:04;;;;;;;11.98;6.63;;;;;;;13.42;100.00;97796.97;5016611;28;20137;-63
2021/10/22 00:16:50;;;;;;;11.25;6.97;;;;;;;13.46;100.00;97781.66;5013351;28;20071;-66
2021/10/22 00:19:35;;;;;;;10.70;6.50;;;;;;;13.42;100.00;97793.47;5016539;28;20124;-68
2021/10/22 00:22:19;;;;;;;;;;;;;;;13.42;100.00;97802.28;5003172;28;20056;-67
2021/10/22 00:25:06;;;;;;;14.07;5.95;;;;;;;13.41;100.00;97802.38;5021967;28;19923;-64
2021/10/22 00:27:50;;;;;;;12.52;6.95;;;;;;;13.49;100.00;97802.78;5018425;28;20076;-65
2021/10/22 00:30:35;;;;;;;13.95;6.75;;;;;;;13.49;100.00;97806.28;5021552;28;20048;-65
2021/10/22 00:33:20;;;;;;;10.77;6.50;;;;;;;13.44;100.00;97803.06;5008325;28;20056;-64
2021/10/22 00:36:11;;;;;;;12.70;6.85;;;;;;;13.46;100.00;97816.28;5010073;28;20569;-67
2021/10/22 00:38:56;;;;;;;10.95;6.40;;;;;;;13.43;100.00;97788.03;5026042;28;20144;-65
2021/10/22 00:41:42;;;;;;;10.13;6.70;;;;;;;13.40;100.00;97782.91;5027110;28;20051;-65
2021/10/22 00:44:26;;;;;;;12.93;6.93;;;;;;;13.42;100.00;97774.84;5025607;28;20452;-66
2021/10/22 00:47:12;;;;;;;12.15;7.00;;;;;;;13.44;100.00;97792.41;5026498;28;20049;-66
2021/10/22 00:49:57;;;;;;;13.67;6.93;;;;;;;13.46;100.00;97790.50;5024937;28;20056;-65
2021/10/22 00:52:44;;;;;;;;;;;;;;;13.50;100.00;97789.34;5021167;28;20045;-63
2021/10/22 00:55:29;;;;;;;11.65;7.20;;;;;;;13.46;100.00;97800.31;4999249;28;19927;-64
2021/10/22 00:58:14;;;;;;;12.15;7.40;;;;;;;13.46;100.00;97787.81;5025753;28;20412;-64
2021/10/22 01:00:59;;;;;;;11.10;6.75;;;;;;;13.48;100.00;97798.38;5014049;28;20056;-65
2021/10/22 01:03:43;;;;;;;10.68;6.85;;;;;;;13.52;100.00;97813.22;5026706;28;20412;-65
2021/10/22 01:06:29;;;;;;;14.05;7.68;;;;;;;13.41;100.00;97805.03;5018423;28;20199;-64
2021/10/22 01:09:13;;;;;;;10.45;7.65;;;;;;;13.42;100.00;97796.97;5001588;28;20418;-64
2021/10/22 01:11:59;;;;;;;13.90;6.65;;;;;;;13.39;100.00;97773.22;5014556;28;20081;-65
2021/10/22 01:14:44;;;;;;;12.25;7.40;;;;;;;13.45;100.00;97778.13;5019187;28;20460;-66
2021/10/22 01:17:31;;;;;;;9.50;6.93;;;;;;;13.43;100.00;97765.88;5031712;28;20158;-65
2021/10/22 01:20:19;;;;;;;14.23;7.95;;;;;;;13.45;100.00;97770.16;5011159;28;20063;-65
2021/10/22 01:23:04;;;;;;;12.00;7.05;;;;;;;13.48;100.00;97777.97;5018332;28;20877;-66
2021/10/22 01:25:50;;;;;;;13.85;6.85;;;;;;;13.46;100.00;97779.84;5018113;28;20100;-64
2021/10/22 01:28:35;;;;;;;13.10;7.35;;;;;;;13.47;100.00;97772.72;5012142;28;20096;-65
2021/10/22 01:31:22;;;;;;;;;;;;;;;13.52;100.00;97763.50;5018850;28;20080;-66
2021/10/22 01:34:07;;;;;;;11.40;6.95;;;;;;;13.52;100.00;97765.28;5020432;28;19928;-68
2021/10/22 01:36:52;;;;;;;13.13;6.95;;;;;;;13.50;100.00;97764.56;5020160;28;20114;-67
2021/10/22 01:39:36;;;;;;;;;;;;;;;13.48;100.00;97767.31;5003758;28;20125;-66
2021/10/22 01:42:21;;;;;;;16.65;7.50;;;;;;;13.51;100.00;97758.25;5015023;28;20382;-65
2021/10/22 01:45:07;;;;;;;14.30;7.78;;;;;;;13.52;100.00;97759.97;5015949;28;20048;-66
2021/10/22 01:47:54;;;;;;;12.65;8.02;;;;;;;13.52;100.00;97767.94;5019203;28;20052;-64
2021/10/22 01:50:38;;;;;;;14.98;8.07;;;;;;;13.47;100.00;97794.03;5019337;28;20102;-64
2021/10/22 01:53:23;;;;;;;12.55;7.97;;;;;;;13.49;100.00;97789.47;5003070;28;20525;-65
2021/10/22 01:56:07;;;;;;;14.10;8.15;;;;;;;13.50;100.00;97775.19;5003329;28;20043;-64
2021/10/22 01:58:52;;;;;;;12.38;7.68;;;;;;;13.49;100.00;97781.50;5021064;28;20128;-62
2021/10/22 02:01:37;;;;;;;13.60;8.00;;;;;;;13.52;100.00;97775.94;5017827;28;20099;-61
2021/10/22 02:04:22;;;;;;;12.70;7.82;;;;;;;13.50;100.00;97793.84;5016922;28;20464;-63
2021/10/22 02:07:06;;;;;;;13.68;8.05;;;;;;;13.50;100.00;97783.19;5014107;28;20095;-66
2021/10/22 02:09:51;;;;;;;13.63;8.18;;;;;;;13.54;100.00;97768.72;5012985;28;20099;-63
2021/10/22 02:12:37;;;;;;;13.50;7.70;;;;;;;13.51;100.00;97784.88;5018324;28;20861;-63
2021/10/22 02:15:22;;;;;;;11.90;6.93;;;;;;;13.48;100.00;97791.25;5017832;28;20067;-62
2021/10/22 02:18:06;;;;;;;13.25;7.95;;;;;;;13.45;100.00;97790.59;5020010;28;20071;-63
2021/10/22 02:20:51;;;;;;;12.95;8.35;;;;;;;13.40;100.00;97780.25;5017184;28;20107;-66
2021/10/22 02:23:36;;;;;;;15.35;7.97;;;;;;;13.44;100.00;97794.22;5004483;28;20494;-64
2021/10/22 02:26:21;;;;;;;13.95;7.75;;;;;;;13.43;100.00;97782.72;5015988;28;20111;-65
2021/10/22 02:29:06;;;;;;;15.32;7.72;;;;;;;13.42;100.00;97780.16;5017908;28;20127;-66
2021/10/22 02:31:50;;;;;;;12.32;7.30;;;;;;;13.42;100.00;97782.81;5019684;28;20835;-66
2021/10/22 02:34:35;;;;;;;11.77;7.60;;;;;;;13.41;100.00;97786.41;5021927;28;20137;-64
2021/10/22 02:37:20;;;;;;;12.38;7.40;;;;;;;13.43;100.00;97784.53;5024981;28;20075;-66
2021/10/22 02:40:05;;;;;;;14.48;8.02;;;;;;;13.44;100.00;97788.88;5024101;28;20136;-66
2021/10/22 02:42:52;;;;;;;14.05;7.75;;;;;;;13.43;100.00;97788.03;5022716;28;20111;-64
2021/10/22 02:45:36;;;;;;;13.00;8.60;;;;;;;13.40;100.00;97776.72;5003289;28;20056;-65
2021/10/22 02:48:21;;;;;;;11.98;7.75;;;;;;;13.46;100.00;97779.84;5009248;28;20118;-65
2021/10/22 02:51:05;;;;;;;12.13;8.38;;;;;;;13.37;100.00;97784.88;5019709;28;20693;-65
2021/10/22 02:53:49;;;;;;;15.57;8.05;;;;;;;13.48;100.00;97795.72;5025891;28;20531;-66
2021/10/22 02:56:34;;;;;;;10.32;7.68;;;;;;;13.50;100.00;97799.16;5022072;28;20083;-66
2021/10/22 02:59:18;;;;;;;12.52;7.93;;;;;;;13.43;100.00;97798.69;5025264;28;20447;-63
2021/10/22 03:02:03;;;;;;;15.85;9.02;;;;;;;13.45;100.00;97790.59;5018046;28;20049;-66
2021/10/22 03:04:48;;;;;;;13.88;8.70;;;;;;;13.46;100.00;97795.81;5011471;28;20060;-64
2021/10/22 03:07:33;;;;;;;15.05;8.10;;;;;;;13.51;100.00;97799.06;5029192;28;20518;-67
2021/10/22 03:10:17;;;;;;;12.85;8.48;;;;;;;13.48;100.00;97788.59;5001799;28;21015;-65
2021/10/22 03:13:04;;;;;;;14.52;8.27;;;;;;;13.51;100.00;97785.75;5028606;28;20897;-66
2021/10/22 03:15:48;;;;;;;14.93;8.93;;;;;;;13.50;100.00;97788.50;5027839;28;20129;-66
2021/10/22 03:18:33;;;;;;;17.13;8.98;;;;;;;13.52;100.00;97774.16;5025411;28;20056;-65
2021/10/22 03:21:19;;;;;;;19.17;8.18;;;;;;;13.54;100.00;97784.69;5009122;28;20052;-65
2021/10/22 03:24:05;;;;;;;14.23;8.02;;;;;;;13.46;100.00;97779.00;4996301;28;20099;-67
2021/10/22 03:26:49;;;;;;;18.55;8.52;;;;;;;13.45;100.00;97774.63;5029056;28;20172;-66
2021/10/22 03:29:34;;;;;;;12.90;7.93;;;;;;;13.51;100.00;97774.25;5028049;28;20048;-65
2021/10/22 03:32:18;;;;;;;14.85;8.07;;;;;;;13.51;100.00;97763.59;5028135;28;20118;-65
2021/10/22 03:35:05;;;;;;;18.42;8.18;;;;;;;13.48;100.00;97766.44;5033395;28;20091;-69
2021/10/22 03:37:50;;;;;;;18.15;8.88;;;;;;;13.56;100.00;97766.81;5023768;28;20099;-64
2021/10/22 03:40:35;;;;;;;13.57;7.75;;;;;;;13.60;100.00;97768.31;5013433;28;20057;-65
2021/10/22 03:43:19;;;;;;;12.95;8.45;;;;;;;13.56;100.00;97774.78;5026574;28;20060;-67
2021/10/22 03:46:05;;;;;;;13.18;8.60;;;;;;;13.51;100.00;97779.56;5027199;28;20052;-65
2021/10/22 03:48:49;;;;;;;17.90;8.43;;;;;;;13.44;100.00;97780.91;5027391;28;20095;-65
2021/10/22 03:51:35;;;;;;;16.85;8.90;;;;;;;13.36;100.00;97767.22;5012520;28;20056;-66
2021/10/22 03:54:19;;;;;;;17.05;8.35;;;;;;;13.35;100.00;97773.50;5028774;28;20420;-62
2021/10/22 03:57:04;;;;;;;14.98;8.63;;;;;;;13.36;100.00;97777.84;5026296;28;20076;-72
2021/10/22 03:59:48;;;;;;;14.65;8.45;;;;;;;13.31;100.00;97777.31;5027376;28;20100;-68
2021/10/22 04:02:32;;;;;;;14.32;8.93;;;;;;;13.33;100.00;97775.38;5005459;28;20504;-64
2021/10/22 04:05:17;;;;;;;17.45;8.88;;;;;;;13.26;100.00;97787.38;5027880;28;20068;-64
2021/10/22 04:08:02;;;;;;;18.67;8.80;;;;;;;13.24;100.00;97770.63;5026905;28;20491;-64
2021/10/22 04:10:47;;;;;;;13.55;8.80;;;;;;;13.22;100.00;97783.19;5004456;28;20295;-64
2021/10/22 04:13:32;;;;;;;13.95;8.55;;;;;;;13.23;100.00;97775.13;5012082;28;20527;-65
2021/10/22 04:16:17;;;;;;;16.42;8.30;;;;;;;13.27;100.00;97779.31;5014334;28;20083;-64
2021/10/22 04:19:01;;;;;;;16.08;8.73;;;;;;;13.23;100.00;97782.25;5026352;28;20052;-63
2021/10/22 04:21:46;;;;;;;21.02;8.63;;;;;;;13.24;100.00;97778.63;5025338;28;20578;-65
2021/10/22 04:24:31;;;;;;;17.45;8.95;;;;;;;13.25;100.00;97790.97;5026443;28;20051;-63
2021/10/22 04:27:16;;;;;;;20.65;9.13;;;;;;;13.23;100.00;97784.91;5011858;28;20052;-64
2021/10/22 04:30:01;;;;;;;;;;;;;;;13.28;100.00;97793.44;5012277;28;20145;-65
2021/10/22 04:32:46;;;;;;;19.65;9.60;;;;;;;13.27;100.00;97789.09;5024426;28;20463;-63
2021/10/22 04:35:32;;;;;;;18.50;9.30;;;;;;;13.25;100.00;97778.53;5026263;28;20052;-65
2021/10/22 04:41:04;;;;;;;21.20;8.57;;;;;;;13.22;100.00;97786.69;5009433;28;20052;-64
2021/10/22 04:43:50;;;;;;;13.73;8.23;;;;;;;13.28;100.00;97774.81;5010408;28;20075;-64
2021/10/22 04:46:35;;;;;;;26.25;9.05;;;;;;;13.24;100.00;97770.63;5011635;28;20873;-63
2021/10/22 04:49:20;;;;;;;20.10;8.63;;;;;;;13.32;100.00;97774.53;5029102;28;20152;-62
2021/10/22 04:52:04;;;;;;;17.23;8.98;;;;;;;13.31;100.00;97787.94;5022463;28;20080;-64
2021/10/22 04:54:50;;;;;;;18.77;8.77;;;;;;;13.31;100.00;97777.31;5014393;28;20073;-64
2021/10/22 04:57:36;;;;;;;19.67;9.20;;;;;;;13.25;100.00;97781.19;5011610;28;20048;-66
2021/10/22 05:00:22;;;;;;;14.00;8.63;;;;;;;13.25;100.00;97793.63;5024690;28;20091;-64
2021/10/22 05:03:08;;;;;;;13.43;8.32;;;;;;;13.27;100.00;97787.28;5015306;28;20083;-65
2021/10/22 05:05:53;;;;;;;13.60;8.43;;;;;;;13.32;100.00;97794.97;5011562;28;20068;-63
2021/10/22 05:08:38;;;;;;;20.65;9.00;;;;;;;13.33;100.00;97799.34;5026365;28;20158;-64
2021/10/22 05:11:22;;;;;;;13.88;8.50;;;;;;;13.35;100.00;97803.66;5026775;28;20088;-64
2021/10/22 05:14:07;;;;;;;16.10;9.27;;;;;;;13.34;100.00;97807.22;5023540;28;20044;-62
2021/10/22 05:16:51;;;;;;;15.25;8.80;;;;;;;13.31;100.00;97809.25;5025756;28;20596;-63
2021/10/22 05:19:36;;;;;;;15.25;8.63;;;;;;;13.26;100.00;97809.50;5031482;28;20123;-64
2021/10/22 05:22:21;;;;;;;16.20;8.52;;;;;;;13.25;100.00;97798.97;5024381;28;20064;-64
2021/10/22 05:25:07;;;;;;;15.65;8.98;;;;;;;13.27;100.00;97813.03;5026303;28;20064;-64
2021/10/22 05:27:52;;;;;;;18.15;9.50;;;;;;;13.26;100.00;97814.84;5023924;28;20060;-65
2021/10/22 05:30:37;;;;;;;13.27;7.80;;;;;;;13.41;100.00;97815.69;5024275;28;20044;-65
2021/10/22 05:33:22;;;;;;;20.48;10.07;;;;;;;13.47;100.00;97813.53;5029102;28;20416;-64
2021/10/22 05:36:06;;;;;;;;;;;;;;;13.71;100.00;97824.44;5024850;28;20514;-64
2021/10/22 05:38:52;;;;;;;16.23;7.88;;;;;;;13.75;100.00;97800.19;4993737;28;19963;-65
2021/10/22 05:41:36;;;;;;;20.00;8.82;;;;;;;13.89;100.00;97812.63;5026438;28;20053;-63
2021/10/22 05:44:21;;;;;;;12.70;7.75;;;;;;;14.02;100.00;97829.50;5010411;28;20899;-65
2021/10/22 05:47:06;;;;;;;14.18;7.80;;;;;;;14.12;100.00;97808.47;5024071;28;20536;-61
2021/10/22 05:49:50;;;;;;;14.82;7.00;;;;;;;14.19;100.00;97810.59;5018403;28;20119;-65
2021/10/22 05:52:35;;;;;;;13.63;7.88;;;;;;;14.25;100.00;97815.59;5023910;28;20056;-67
2021/10/22 05:55:21;;;;;;;16.40;8.13;;;;;;;14.22;100.00;97810.44;5009228;28;20123;-62
2021/10/22 05:58:05;;;;;;;;;;;;;;;14.28;100.00;97823.34;5009397;28;20106;-62
2021/10/22 06:00:50;;;;;;;19.15;7.53;;;;;;;14.20;100.00;97822.97;5027484;28;20005;-65
2021/10/22 06:03:35;;;;;;;15.93;7.85;;;;;;;14.14;100.00;97830.53;5015691;28;20085;-62
2021/10/22 06:06:20;;;;;;;11.02;7.00;;;;;;;14.32;100.00;97824.03;5025726;28;20064;-63
2021/10/22 06:09:05;;;;;;;15.55;7.50;;;;;;;14.42;100.00;97819.78;5011340;28;20084;-63
2021/10/22 06:11:51;;;;;;;13.52;6.97;;;;;;;14.47;100.00;97852.34;5022656;28;20127;-66
2021/10/22 06:14:36;;;;;;;13.15;7.45;;;;;;;14.30;100.00;97849.91;5024778;28;20056;-61
2021/10/22 06:17:20;;;;;;;12.18;6.05;;;;;;;14.32;100.00;97842.69;5007135;28;20562;-63
2021/10/22 06:20:14;;;;;;;10.60;6.45;;;;;;;14.40;100.00;97849.22;5025575;28;20133;-64
2021/10/22 06:25:56;;;;;;;10.75;6.07;;;;;;;14.45;100.00;97856.91;5031729;28;20103;-64
2021/10/22 06:28:41;;;;;;;10.73;6.35;;;;;;;14.48;100.00;97865.56;5012312;28;20083;-64
2021/10/22 06:31:27;;;;;;;10.82;6.28;;;;;;;14.45;100.00;97855.13;4999372;28;20060;-62
2021/10/22 06:34:12;;;;;;;11.30;5.65;;;;;;;14.43;100.00;97869.50;5025112;28;20569;-69
2021/10/22 06:36:56;;;;;;;13.73;5.47;;;;;;;14.44;100.00;97863.22;5012989;28;20068;-64
2021/10/22 06:39:41;;;;;;;;;;;;;;;14.35;100.00;97867.34;5019784;28;20057;-64
2021/10/22 06:42:26;;;;;;;10.37;5.47;;;;;;;14.25;100.00;97876.03;5016165;28;19986;-65
2021/10/22 06:45:11;;;;;;;9.48;5.20;;;;;;;14.31;100.00;97870.31;5024909;28;20064;-62
2021/10/22 06:47:56;;;;;;;8.55;4.85;;;;;;;14.36;100.00;97878.88;5015030;28;20470;-63
2021/10/22 06:50:42;;;;;;;9.25;4.93;;;;;;;14.30;100.00;97876.56;5028722;28;20076;-64
2021/10/22 06:53:27;;;;;;;10.15;4.85;;;;;;;14.33;100.00;97876.38;5027540;28;20574;-64
2021/10/22 06:56:13;;;;;;;8.75;5.15;;;;;;;14.39;100.00;97868.00;5009200;28;20051;-65
2021/10/22 06:58:58;;;;;;;12.18;5.47;;;;;;;14.40;100.00;97891.88;5026271;28;20604;-65
2021/10/22 07:01:43;;;;;;;9.40;4.15;;;;;;;14.56;100.00;97897.91;5017418;28;20048;-61
2021/10/22 07:04:27;;;;;;;6.80;5.00;;;;;;;14.68;100.00;97899.78;5026284;28;20060;-64
2021/10/22 07:07:15;;;;;;;14.48;4.65;;;;;;;14.63;100.00;97891.22;5012822;28;20107;-65
2021/10/22 07:09:59;;;;;;;9.52;4.50;;;;;;;14.65;100.00;97905.34;5028731;28;20589;-65
2021/10/22 07:12:44;;;;;;;9.20;4.05;;;;;;;14.60;100.00;97902.09;5026248;28;20047;-66
2021/10/22 07:15:30;;;;;;;9.77;3.85;;;;;;;14.48;100.00;97892.22;5028524;28;20532;-65
2021/10/22 07:18:16;;;;;;;6.63;3.65;;;;;;;14.58;100.00;97893.34;4996963;28;20439;-69
2021/10/22 07:21:00;;;;;;;9.85;3.78;;;;;;;14.63;100.00;97911.72;5028056;28;20099;-64
2021/10/22 07:23:48;;;;;;;8.00;3.88;;;;;;;14.68;100.00;97913.13;5028400;28;20114;-65
2021/10/22 07:26:32;;;;;;;6.13;3.45;;;;;;;14.62;100.00;97910.88;4985586;28;20107;-67
2021/10/22 07:29:17;;;;;;;8.20;3.25;;;;;;;14.56;100.00;97915.75;5027896;28;20477;-69
2021/10/22 07:32:02;;;;;;;;;;;;;;;14.59;100.00;97915.56;5019582;28;20555;-75
2021/10/22 07:34:48;;;;;;;11.68;2.55;;;;;;;14.48;100.00;97934.91;4996884;28;19928;-69
2021/10/22 07:37:33;;;;;;;4.03;2.42;;;;;;;14.49;100.00;97936.63;5024129;28;20075;-68
2021/10/22 07:40:18;;;;;;;5.10;2.10;;;;;;;14.43;100.00;97930.84;5023441;28;20417;-67
2021/10/22 07:43:04;;;;;;;4.80;2.50;;;;;;;14.32;100.00;97942.16;5018443;28;20048;-66
2021/10/22 07:45:48;;;;;;;3.03;1.92;;;;;;;14.37;100.00;97929.44;5023660;28;20071;-67
2021/10/22 07:48:34;;;;;;;3.88;1.90;;;;;;;14.64;100.00;97946.28;5016677;28;20203;-67
2021/10/22 07:51:19;;;;;;;4.25;1.73;;;;;;;15.79;95.05;97940.16;5023945;28;20052;-68
2021/10/22 07:54:04;;;;;;;9.10;1.80;;;;;;;16.49;89.42;97968.13;5023585;28;20057;-66
2021/10/22 07:56:48;;;;;;;;;;;;;;;17.65;82.37;97960.25;5019505;28;20081;-70
2021/10/22 07:59:33;;;;;;;3.22;1.50;;;;;;;18.87;69.67;97964.66;5019875;28;19928;-68
2021/10/22 08:02:19;;;;;;;;;;;;;;;19.74;63.66;97956.41;5025549;28;20052;-68
2021/10/22 08:05:04;;;;;;;2.80;1.40;;;;;;;19.46;56.00;97928.31;5008800;28;20031;-70
2021/10/22 08:07:49;;;;;;;5.07;1.30;;;;;;;20.32;53.31;97975.50;5024245;28;20453;-71
2021/10/22 08:10:34;;;;;;;2.00;1.50;;;;;;;20.40;49.20;97956.81;5007665;28;20068;-65
2021/10/22 08:13:18;;;;;;;2.92;1.20;;;;;;;20.87;47.47;97957.97;5008160;28;20579;-65
2021/10/22 08:16:03;;;;;;;1.92;1.23;;;;;;;21.74;45.81;97969.59;5026175;28;20122;-66
2021/10/22 08:18:48;;;;;;;2.63;1.23;;;;;;;21.68;43.10;97966.59;5019489;28;20639;-67
2021/10/22 08:21:55;;;;;;;1.02;0.70;;;;;;;21.59;41.84;97967.44;5023762;28;20809;-65
2021/10/22 08:24:37;;;;;;;9.18;1.10;;;;;;;21.95;40.67;97978.38;5022735;28;20052;-66
2021/10/22 08:27:22;;;;;;;;;;;;;;;22.51;42.69;97972.16;5011987;28;20548;-65
2021/10/22 08:30:10;;;;;;;;;;;;;;;23.16;40.77;97971.94;5025539;28;19924;-67
2021/10/22 08:32:57;;;;;;;3.80;0.75;;;;;;;23.42;38.89;97981.91;5025235;28;19927;-80
2021/10/22 08:35:42;;;;;;;2.97;0.98;;;;;;;22.65;36.03;97953.59;4994194;28;20072;-68
2021/10/22 08:38:28;;;;;;;4.65;0.90;;;;;;;22.48;36.36;97969.75;4999766;28;20092;-63
2021/10/22 08:41:18;;;;;;;3.03;0.90;;;;;;;23.10;36.00;97961.75;4989740;28;20172;-75
2021/10/22 08:44:04;;;;;;;9.30;4.85;;;;;;;23.21;35.36;97980.50;5017255;28;20122;-66
2021/10/22 08:46:52;;;;;;;4.60;1.58;;;;;;;21.81;37.62;97986.06;5003157;28;20552;-70
2021/10/22 08:49:38;;;;;;;4.10;0.93;;;;;;;20.50;40.09;97995.44;4995292;28;20068;-69
2021/10/22 08:52:24;;;;;;;4.15;0.80;;;;;;;20.34;40.59;97978.88;5011849;28;20076;-64
2021/10/22 08:55:11;;;;;;;2.25;0.73;;;;;;;19.52;43.22;97978.91;5018608;28;20071;-69
2021/10/22 08:57:56;;;;;;;1.13;0.70;;;;;;;18.75;45.03;97997.88;4989103;28;20052;-66
2021/10/22 09:00:41;;;;;;;3.88;0.80;;;;;;;18.73;46.38;98005.22;5024287;28;20531;-66
2021/10/22 09:03:37;;;;;;;2.72;0.98;;;;;;;18.67;46.32;97970.81;5020735;28;20099;-66
2021/10/22 09:06:22;;;;;;;2.85;1.15;;;;;;;18.48;46.72;97992.06;4996350;28;20056;-68
2021/10/22 09:09:18;;;;;;;2.03;1.38;;;;;;;19.03;48.17;97988.44;5025418;28;20052;-67
2021/10/22 09:12:04;;;;;;;4.95;1.05;;;;;;;20.91;44.53;97991.72;5010277;28;20118;-65
2021/10/22 09:15:04;;;;;;;4.45;0.80;;;;;;;22.24;40.39;97997.22;4995725;28;20098;-65
2021/10/22 09:17:50;;;;;;;1.75;0.55;;;;;;;21.67;38.75;97986.47;5013237;28;20099;-68
2021/10/22 09:20:49;;;;;;;3.63;0.50;;;;;;;21.27;39.81;97978.50;5020248;28;20131;-65
2021/10/22 09:23:41;;;;;;;2.38;0.77;;;;;;;20.81;39.73;97985.47;5011886;28;20057;-68
2021/10/22 09:26:29;;;;;;;2.05;0.68;;;;;;;21.61;38.34;97984.34;5017992;28;20424;-68
2021/10/22 09:29:27;;;;;;;1.55;0.70;;;;;;;22.00;37.02;97943.69;5010613;28;20052;-65
2021/10/22 09:32:14;;;;;;;2.47;0.82;;;;;;;20.20;38.96;97925.44;5025694;28;20095;-65
2021/10/22 09:34:59;;;;;;;2.88;0.52;;;;;;;19.09;43.04;97979.88;5022633;28;20132;-67
2021/10/22 09:37:46;;;;;;;1.08;0.60;;;;;;;18.00;45.74;97969.09;5025243;28;20053;-64
2021/10/22 09:40:32;;;;;;;6.40;0.50;;;;;;;17.45;47.78;97971.63;5009771;28;20108;-64
2021/10/22 09:43:22;;;;;;;3.15;1.05;;;;;;;17.30;50.05;97987.03;5018500;28;20080;-64
2021/10/22 09:46:14;;;;;;;1.52;0.60;;;;;;;17.89;49.86;97985.16;5020434;28;20541;-65
2021/10/22 09:49:01;;;;;;;3.55;0.70;;;;;;;17.56;51.92;97975.19;5002120;28;20139;-64
2021/10/22 09:51:48;;;;;;;3.30;0.80;;;;;;;17.72;51.87;97986.44;5018150;28;20060;-64
2021/10/22 09:54:35;;;;;;;1.58;0.65;;;;;;;17.13;51.55;97978.53;5018256;28;20053;-66
2021/10/22 09:57:24;;;;;;;5.90;1.08;;;;;;;17.09;53.05;97987.75;5008677;28;20072;-62
2021/10/22 10:00:11;;;;;;;4.88;0.55;;;;;;;16.83;53.67;97984.34;5019581;28;20056;-63
2021/10/22 10:02:56;;;;;;;2.47;0.73;;;;;;;16.79;55.32;97966.78;5016609;28;20096;-70
2021/10/22 10:05:41;;;;;;;3.83;0.80;;;;;;;16.74;55.68;97965.41;5020686;28;20057;-67
2021/10/22 10:08:26;;;;;;;5.75;1.00;;;;;;;17.38;55.79;97957.81;5016543;28;20585;-66
2021/10/22 10:11:13;;;;;;;2.58;0.93;;;;;;;18.71;49.72;97926.63;4996162;28;20426;-66
2021/10/22 10:14:00;;;;;;;3.90;1.10;;;;;;;19.66;46.28;97973.19;5019706;28;20469;-66
2021/10/22 10:16:48;;;;;;;3.40;1.20;;;;;;;19.60;45.18;97978.25;5008938;28;20057;-64
2021/10/22 10:19:59;;;;;;;3.17;1.20;;;;;;;20.43;43.78;97970.03;5025987;28;20132;-68
2021/10/22 10:22:47;;;;;;;3.13;0.75;;;;;;;19.41;41.68;97984.31;5007313;28;20068;-67
2021/10/22 10:25:34;;;;;;;3.97;0.77;;;;;;;18.23;44.69;97978.84;5007641;28;20152;-68
2021/10/22 10:28:39;;;;;;;1.70;0.60;;;;;;;18.13;45.78;97976.03;5023761;28;20136;-65
2021/10/22 10:31:41;;;;;;;1.83;0.93;;;;;;;19.13;44.09;97978.63;5027478;28;20067;-63
2021/10/22 10:34:43;;;;;;;3.70;0.70;;;;;;;20.07;40.32;97975.03;5027076;28;20345;-65
2021/10/22 10:37:38;;;;;;;3.50;0.70;;;;;;;19.27;40.46;97981.09;5022785;28;20056;-64
2021/10/22 10:40:26;;;;;;;4.05;0.70;;;;;;;18.04;41.37;97978.59;5023303;28;20087;-66
2021/10/22 10:43:23;;;;;;;5.15;0.70;;;;;;;17.96;43.42;97995.28;5008498;28;20107;-65
2021/10/22 10:46:37;;;;;;;1.83;0.52;;;;;;;17.63;43.40;97973.75;4999249;28;20049;-65
2021/10/22 10:49:48;;;;;;;2.17;1.15;;;;;;;17.29;43.64;97966.53;5026824;28;20529;-65
2021/10/22 10:52:40;;;;;;;4.20;0.63;;;;;;;16.62;44.42;97985.03;5023341;28;20049;-66
2021/10/22 10:55:30;;;;;;;4.75;0.82;;;;;;;16.53;45.89;97983.88;5016856;28;20520;-65
2021/10/22 10:58:19;;;;;;;2.55;0.70;;;;;;;16.24;46.54;97984.22;5020552;28;20050;-72
2021/10/22 11:01:20;;;;;;;3.58;0.60;;;;;;;16.19;47.67;97994.38;5023788;28;20099;-70
2021/10/22 11:04:06;;;;;;;4.18;1.20;;;;;;;16.42;48.79;98009.69;5024080;28;20860;-71
2021/10/22 11:06:52;;;;;;;11.48;1.30;;;;;;;16.29;48.07;97976.69;5008640;28;20524;-68
2021/10/22 11:09:39;;;;;;;5.93;1.35;;;;;;;16.08;48.14;97978.22;5024023;28;20578;-67
2021/10/22 11:12:24;;;;;;;4.72;0.68;;;;;;;15.93;49.28;98022.06;5021658;28;20551;-64
2021/10/22 11:15:09;;;;;;;4.57;0.90;;;;;;;15.80;50.46;98021.22;5023347;28;20076;-66
2021/10/22 11:17:54;;;;;;;;;;;;;;;15.46;54.84;98011.97;5026752;28;20054;-65
2021/10/22 11:20:40;;;;;;;9.23;0.75;;;;;;;14.11;71.73;98111.41;5010667;28;19959;-67
2021/10/22 11:23:25;;;;;;;9.27;2.60;;;;;;;12.63;99.25;98107.66;5012918;28;20060;-65
2021/10/22 11:26:19;;;;;;;4.60;0.93;;;;;;;12.14;100.00;98185.59;5013050;28;20111;-68
2021/10/22 11:29:18;;;;;;;3.25;0.70;;;;;;;11.66;100.00;98178.31;5015807;28;20080;-67
2021/10/22 11:32:10;;;;;;;0.73;0.30;;;;;;;11.15;100.00;98239.16;5019229;28;20096;-65
2021/10/22 11:35:04;;;;;;;1.05;0.52;;;;;;;10.97;100.00;98218.81;5024660;28;20132;-67
2021/10/22 11:37:50;;;;;;;3.55;0.52;;;;;;;10.72;100.00;98182.91;5020894;28;20140;-65
2021/10/22 11:40:34;;;;;;;2.85;0.40;;;;;;;10.83;100.00;98207.97;5005770;28;20053;-65
2021/10/22 11:43:20;;;;;;;1.90;0.40;;;;;;;10.78;100.00;98207.31;5019194;28;20059;-67
2021/10/22 11:46:20;;;;;;;1.77;1.02;;;;;;;10.80;100.00;98201.97;5022099;28;20060;-66
2021/10/22 11:49:05;;;;;;;5.55;0.68;;;;;;;10.72;100.00;98207.59;5023337;28;20129;-67
2021/10/22 11:51:54;;;;;;;1.70;0.35;;;;;;;10.69;100.00;98189.19;5003413;28;20073;-71
2021/10/22 11:54:45;;;;;;;1.48;0.38;;;;;;;10.74;100.00;98188.97;5013644;28;20049;-66
2021/10/22 11:57:34;;;;;;;2.65;0.45;;;;;;;10.96;100.00;98214.41;5004336;28;20095;-66
2021/10/22 12:00:20;;;;;;;2.13;0.47;;;;;;;11.16;100.00;98193.13;5023807;28;20098;-74
2021/10/22 12:03:05;;;;;;;4.22;0.98;;;;;;;11.25;100.00;98194.50;5026199;28;20122;-68
2021/10/22 12:05:50;;;;;;;3.67;1.30;;;;;;;11.08;100.00;98207.72;4980359;28;20053;-69
2021/10/22 12:08:35;;;;;;;2.42;1.20;;;;;;;11.03;100.00;98212.38;5010010;28;20149;-69
2021/10/22 12:11:23;;;;;;;1.23;0.77;;;;;;;10.94;100.00;98215.44;5024992;28;20075;-70
2021/10/22 12:14:15;;;;;;;3.15;1.00;;;;;;;11.11;100.00;98234.09;5026454;28;20049;-69
2021/10/22 12:17:02;;;;;;;2.20;1.00;;;;;;;11.04;100.00;98245.91;5028370;28;20660;-72
2021/10/22 12:19:50;;;;;;;3.28;1.00;;;;;;;11.59;100.00;98267.13;5019209;28;20144;-73
2021/10/22 12:22:37;;;;;;;2.70;1.00;;;;;;;11.88;100.00;98261.31;5025738;28;20091;-68
2021/10/22 12:25:24;;;;;;;1.77;1.35;;;;;;;12.31;100.00;98260.84;5025376;28;20068;-68
2021/10/22 12:28:17;;;;;;;2.05;1.10;;;;;;;12.28;100.00;98263.69;5008321;28;20133;-75
2021/10/22 12:31:10;;;;;;;2.00;0.68;;;;;;;12.26;100.00;98256.75;5022994;28;20036;-69
2021/10/22 12:34:14;;;;;;;2.08;0.88;;;;;;;12.24;100.00;98262.13;5022617;28;20102;-69
2021/10/22 12:37:11;;;;;;;3.28;1.55;;;;;;;12.26;100.00;98265.56;5007745;28;20112;-68
2021/10/22 12:39:56;;;;;;;2.67;1.10;;;;;;;11.79;100.00;98255.59;5014323;28;20052;-69
2021/10/22 12:42:41;;;;;;;2.60;0.80;;;;;;;11.68;100.00;98287.09;5019069;28;20090;-65
2021/10/22 12:45:26;;;;;;;;;;;;;;;11.68;100.00;98295.94;5021955;28;20106;-68
2021/10/22 12:48:12;;;;;;;3.57;1.17;;;;;;;11.41;100.00;98280.41;5005043;28;19939;-69
2021/10/22 12:51:08;;;;;;;4.80;0.65;;;;;;;11.29;100.00;98292.47;5020632;28;20047;-64
2021/10/22 12:54:04;;;;;;;2.08;0.90;;;;;;;11.46;100.00;98312.88;5016815;28;20048;-67
2021/10/22 12:56:57;;;;;;;2.60;0.93;;;;;;;11.28;100.00;98255.38;5021923;28;20075;-69
2021/10/22 12:59:42;;;;;;;2.15;0.80;;;;;;;11.23;100.00;98319.25;5003492;28;20044;-66
2021/10/22 13:02:30;;;;;;;1.70;0.80;;;;;;;11.17;100.00;98311.59;5017933;28;20133;-65